sensor_id;sensor_type;location;lat;lon;timestamp;temperature;humidity
52159;DHT22;38145;53.182;6.284;2022-09-12T00:01:06;14.70;99.90
52159;DHT22;38145;53.182;6.284;2022-09-12T00:03:32;14.60;99.90
52159;DHT22;38145;53.182;6.284;2022-09-12T00:05:58;14.60;99.90
52159;DHT22;38145;53.182;6.284;2022-09-12T00:08:24;14.70;99.90
52159;DHT22;38145;53.182;6.284;2022-09-12T00:10:49;14.60;99.90
52159;DHT22;38145;53.182;6.284;2022-09-12T00:13:15;14.60;99.90
52159;DHT22;38145;53.182;6.284;2022-09-12T00:15:43;14.60;99.90
52159;DHT22;38145;53.182;6.284;2022-09-12T00:18:13;14.60;99.90
52159;DHT22;38145;53.182;6.284;2022-09-12T00:20:43;14.60;99.90
52159;DHT22;38145;53.182;6.284;2022-09-12T00:23:11;14.70;99.90
52159;DHT22;38145;53.182;6.284;2022-09-12T00:25:43;14.50;99.90
52159;DHT22;38145;53.182;6.284;2022-09-12T00:28:09;14.50;99.90
52159;DHT22;38145;53.182;6.284;2022-09-12T00:30:40;14.60;99.90
52159;DHT22;38145;53.182;6.284;2022-09-12T00:33:06;14.40;99.90
52159;DHT22;38145;53.182;6.284;2022-09-12T00:35:32;14.40;99.90
52159;DHT22;38145;53.182;6.284;2022-09-12T00:37:58;14.30;99.90
52159;DHT22;38145;53.182;6.284;2022-09-12T00:40:24;14.40;99.90
52159;DHT22;38145;53.182;6.284;2022-09-12T00:42:49;14.30;99.90
52159;DHT22;38145;53.182;6.284;2022-09-12T00:45:22;14.30;99.90
52159;DHT22;38145;53.182;6.284;2022-09-12T00:47:49;14.40;99.90
52159;DHT22;38145;53.182;6.284;2022-09-12T00:50:15;14.40;99.90
52159;DHT22;38145;53.182;6.284;2022-09-12T00:52:47;14.40;99.90
52159;DHT22;38145;53.182;6.284;2022-09-12T00:55:19;14.30;99.90
52159;DHT22;38145;53.182;6.284;2022-09-12T00:57:52;14.30;99.90
52159;DHT22;38145;53.182;6.284;2022-09-12T01:00:21;14.30;99.90
52159;DHT22;38145;53.182;6.284;2022-09-12T01:02:52;14.30;99.90
52159;DHT22;38145;53.182;6.284;2022-09-12T01:05:21;14.30;99.90
52159;DHT22;38145;53.182;6.284;2022-09-12T01:07:48;14.30;99.90
52159;DHT22;38145;53.182;6.284;2022-09-12T01:10:15;14.30;99.90
52159;DHT22;38145;53.182;6.284;2022-09-12T01:12:42;14.40;99.90
52159;DHT22;38145;53.182;6.284;2022-09-12T01:15:09;14.40;99.90
52159;DHT22;38145;53.182;6.284;2022-09-12T01:18:20;14.30;99.90
52159;DHT22;38145;53.182;6.284;2022-09-12T01:20:45;14.30;99.90
52159;DHT22;38145;53.182;6.284;2022-09-12T01:23:20;14.30;99.90
52159;DHT22;38145;53.182;6.284;2022-09-12T01:25:57;14.40;99.90
52159;DHT22;38145;53.182;6.284;2022-09-12T01:28:36;14.30;99.90
52159;DHT22;38145;53.182;6.284;2022-09-12T01:34:19;14.30;99.90
52159;DHT22;38145;53.182;6.284;2022-09-12T01:36:58;14.30;99.90
52159;DHT22;38145;53.182;6.284;2022-09-12T01:39:36;14.40;99.90
52159;DHT22;38145;53.182;6.284;2022-09-12T01:44:49;14.20;99.90
52159;DHT22;38145;53.182;6.284;2022-09-12T01:47:22;14.10;99.90
52159;DHT22;38145;53.182;6.284;2022-09-12T01:49:59;14.20;99.90
52159;DHT22;38145;53.182;6.284;2022-09-12T01:55:15;14.10;99.90
52159;DHT22;38145;53.182;6.284;2022-09-12T01:57:51;14.20;99.90
52159;DHT22;38145;53.182;6.284;2022-09-12T02:00:18;14.10;99.90
52159;DHT22;38145;53.182;6.284;2022-09-12T02:05:22;14.10;99.90
52159;DHT22;38145;53.182;6.284;2022-09-12T02:07:55;14.00;99.90
52159;DHT22;38145;53.182;6.284;2022-09-12T02:10:26;14.00;99.90
52159;DHT22;38145;53.182;6.284;2022-09-12T02:13:02;14.00;99.90
52159;DHT22;38145;53.182;6.284;2022-09-12T02:15:40;13.90;99.90
52159;DHT22;38145;53.182;6.284;2022-09-12T02:18:07;13.80;99.90
52159;DHT22;38145;53.182;6.284;2022-09-12T02:20:37;13.80;99.90
52159;DHT22;38145;53.182;6.284;2022-09-12T02:23:17;13.70;99.90
52159;DHT22;38145;53.182;6.284;2022-09-12T02:25:47;13.80;99.90
52159;DHT22;38145;53.182;6.284;2022-09-12T02:28:18;13.90;99.90
52159;DHT22;38145;53.182;6.284;2022-09-12T02:33:42;13.70;99.90
52159;DHT22;38145;53.182;6.284;2022-09-12T02:36:25;13.90;99.90
52159;DHT22;38145;53.182;6.284;2022-09-12T02:38:53;13.80;99.90
52159;DHT22;38145;53.182;6.284;2022-09-12T02:41:20;13.80;99.90
52159;DHT22;38145;53.182;6.284;2022-09-12T02:43:48;13.70;99.90
52159;DHT22;38145;53.182;6.284;2022-09-12T02:46:21;13.90;99.90
52159;DHT22;38145;53.182;6.284;2022-09-12T02:48:47;13.80;99.90
52159;DHT22;38145;53.182;6.284;2022-09-12T02:51:13;13.80;99.90
52159;DHT22;38145;53.182;6.284;2022-09-12T02:53:40;13.90;99.90
52159;DHT22;38145;53.182;6.284;2022-09-12T02:56:22;13.90;99.90
52159;DHT22;38145;53.182;6.284;2022-09-12T02:58:50;13.80;99.90
52159;DHT22;38145;53.182;6.284;2022-09-12T03:01:28;13.70;99.90
52159;DHT22;38145;53.182;6.284;2022-09-12T03:04:04;13.70;99.90
52159;DHT22;38145;53.182;6.284;2022-09-12T03:06:49;13.70;99.90
52159;DHT22;38145;53.182;6.284;2022-09-12T03:09:36;13.70;99.90
52159;DHT22;38145;53.182;6.284;2022-09-12T03:12:18;13.80;99.90
52159;DHT22;38145;53.182;6.284;2022-09-12T03:17:28;13.60;99.90
52159;DHT22;38145;53.182;6.284;2022-09-12T03:20:01;13.80;99.90
52159;DHT22;38145;53.182;6.284;2022-09-12T03:22:40;13.70;99.90
52159;DHT22;38145;53.182;6.284;2022-09-12T03:25:15;13.60;99.90
52159;DHT22;38145;53.182;6.284;2022-09-12T03:27:56;13.50;99.90
52159;DHT22;38145;53.182;6.284;2022-09-12T03:30:23;13.50;99.90
52159;DHT22;38145;53.182;6.284;2022-09-12T03:32:51;13.50;99.90
52159;DHT22;38145;53.182;6.284;2022-09-12T03:35:19;13.40;99.90
52159;DHT22;38145;53.182;6.284;2022-09-12T03:37:47;13.30;99.90
52159;DHT22;38145;53.182;6.284;2022-09-12T03:40:13;13.40;99.90
52159;DHT22;38145;53.182;6.284;2022-09-12T03:42:40;13.40;99.90
52159;DHT22;38145;53.182;6.284;2022-09-12T03:45:06;13.40;99.90
52159;DHT22;38145;53.182;6.284;2022-09-12T03:47:32;13.30;99.90
52159;DHT22;38145;53.182;6.284;2022-09-12T03:49:58;13.30;99.90
52159;DHT22;38145;53.182;6.284;2022-09-12T03:52:24;13.40;99.90
52159;DHT22;38145;53.182;6.284;2022-09-12T03:54:50;13.40;99.90
52159;DHT22;38145;53.182;6.284;2022-09-12T03:57:15;13.20;99.90
52159;DHT22;38145;53.182;6.284;2022-09-12T03:59:41;13.30;99.90
52159;DHT22;38145;53.182;6.284;2022-09-12T04:02:07;13.20;99.90
52159;DHT22;38145;53.182;6.284;2022-09-12T04:04:36;13.20;99.90
52159;DHT22;38145;53.182;6.284;2022-09-12T04:07:01;13.30;99.90
52159;DHT22;38145;53.182;6.284;2022-09-12T04:09:27;13.20;99.90
52159;DHT22;38145;53.182;6.284;2022-09-12T04:11:53;13.20;99.90
52159;DHT22;38145;53.182;6.284;2022-09-12T04:14:19;13.30;99.90
52159;DHT22;38145;53.182;6.284;2022-09-12T04:16:45;13.20;99.90
52159;DHT22;38145;53.182;6.284;2022-09-12T04:19:11;13.20;99.90
52159;DHT22;38145;53.182;6.284;2022-09-12T04:21:37;13.40;99.90
52159;DHT22;38145;53.182;6.284;2022-09-12T04:24:04;13.30;99.90
52159;DHT22;38145;53.182;6.284;2022-09-12T04:26:30;13.20;99.90
52159;DHT22;38145;53.182;6.284;2022-09-12T04:28:56;13.30;99.90
52159;DHT22;38145;53.182;6.284;2022-09-12T04:31:22;13.30;99.90
52159;DHT22;38145;53.182;6.284;2022-09-12T04:33:56;13.30;99.90
52159;DHT22;38145;53.182;6.284;2022-09-12T04:36:23;13.30;99.90
52159;DHT22;38145;53.182;6.284;2022-09-12T04:38:50;13.20;99.90
52159;DHT22;38145;53.182;6.284;2022-09-12T04:41:19;13.30;99.90
52159;DHT22;38145;53.182;6.284;2022-09-12T04:43:46;13.30;99.90
52159;DHT22;38145;53.182;6.284;2022-09-12T04:46:15;13.20;99.90
52159;DHT22;38145;53.182;6.284;2022-09-12T04:48:42;13.20;99.90
52159;DHT22;38145;53.182;6.284;2022-09-12T04:51:10;13.30;99.90
52159;DHT22;38145;53.182;6.284;2022-09-12T04:53:37;13.50;99.90
52159;DHT22;38145;53.182;6.284;2022-09-12T04:56:06;13.40;99.90
52159;DHT22;38145;53.182;6.284;2022-09-12T04:58:32;13.30;99.90
52159;DHT22;38145;53.182;6.284;2022-09-12T05:01:05;13.50;99.90
52159;DHT22;38145;53.182;6.284;2022-09-12T05:03:32;13.50;99.90
52159;DHT22;38145;53.182;6.284;2022-09-12T05:05:58;13.50;99.90
52159;DHT22;38145;53.182;6.284;2022-09-12T05:08:26;13.60;99.90
52159;DHT22;38145;53.182;6.284;2022-09-12T05:10:51;13.50;99.90
52159;DHT22;38145;53.182;6.284;2022-09-12T05:13:17;13.60;99.90
52159;DHT22;38145;53.182;6.284;2022-09-12T05:15:43;13.60;99.90
52159;DHT22;38145;53.182;6.284;2022-09-12T05:18:18;13.50;99.90
52159;DHT22;38145;53.182;6.284;2022-09-12T05:20:43;13.50;99.90
52159;DHT22;38145;53.182;6.284;2022-09-12T05:23:09;13.50;99.90
52159;DHT22;38145;53.182;6.284;2022-09-12T05:25:35;13.50;99.90
52159;DHT22;38145;53.182;6.284;2022-09-12T05:28:01;13.60;99.90
52159;DHT22;38145;53.182;6.284;2022-09-12T05:30:27;13.60;99.90
52159;DHT22;38145;53.182;6.284;2022-09-12T05:32:52;13.60;99.90
52159;DHT22;38145;53.182;6.284;2022-09-12T05:35:18;13.80;99.90
52159;DHT22;38145;53.182;6.284;2022-09-12T05:37:44;13.70;99.90
52159;DHT22;38145;53.182;6.284;2022-09-12T05:40:12;13.70;99.90
52159;DHT22;38145;53.182;6.284;2022-09-12T05:42:42;13.80;99.90
52159;DHT22;38145;53.182;6.284;2022-09-12T05:45:08;13.90;99.90
52159;DHT22;38145;53.182;6.284;2022-09-12T05:47:33;13.70;99.90
52159;DHT22;38145;53.182;6.284;2022-09-12T05:49:59;13.80;99.90
52159;DHT22;38145;53.182;6.284;2022-09-12T05:52:25;13.80;99.90
52159;DHT22;38145;53.182;6.284;2022-09-12T05:54:51;13.90;99.90
52159;DHT22;38145;53.182;6.284;2022-09-12T05:57:16;14.00;99.90
52159;DHT22;38145;53.182;6.284;2022-09-12T05:59:42;13.80;99.90
52159;DHT22;38145;53.182;6.284;2022-09-12T06:02:09;13.80;99.90
52159;DHT22;38145;53.182;6.284;2022-09-12T06:04:35;14.00;99.90
52159;DHT22;38145;53.182;6.284;2022-09-12T06:07:01;13.80;99.90
52159;DHT22;38145;53.182;6.284;2022-09-12T06:09:27;13.80;99.90
52159;DHT22;38145;53.182;6.284;2022-09-12T06:11:52;14.10;99.90
52159;DHT22;38145;53.182;6.284;2022-09-12T06:14:18;14.10;99.90
52159;DHT22;38145;53.182;6.284;2022-09-12T06:16:45;14.00;99.90
52159;DHT22;38145;53.182;6.284;2022-09-12T06:19:14;14.00;99.90
52159;DHT22;38145;53.182;6.284;2022-09-12T06:21:40;14.10;99.90
52159;DHT22;38145;53.182;6.284;2022-09-12T06:24:06;14.30;99.90
52159;DHT22;38145;53.182;6.284;2022-09-12T06:26:33;14.20;99.90
52159;DHT22;38145;53.182;6.284;2022-09-12T06:28:59;14.10;99.90
52159;DHT22;38145;53.182;6.284;2022-09-12T06:31:28;14.20;99.90
52159;DHT22;38145;53.182;6.284;2022-09-12T06:33:55;14.40;99.90
52159;DHT22;38145;53.182;6.284;2022-09-12T06:36:24;14.40;99.90
52159;DHT22;38145;53.182;6.284;2022-09-12T06:38:58;14.20;99.90
52159;DHT22;38145;53.182;6.284;2022-09-12T06:41:25;14.30;99.90
52159;DHT22;38145;53.182;6.284;2022-09-12T06:43:52;14.30;99.90
52159;DHT22;38145;53.182;6.284;2022-09-12T06:46:18;14.40;99.90
52159;DHT22;38145;53.182;6.284;2022-09-12T06:48:44;14.30;99.90
52159;DHT22;38145;53.182;6.284;2022-09-12T06:51:13;14.30;99.90
52159;DHT22;38145;53.182;6.284;2022-09-12T06:53:39;14.50;99.90
52159;DHT22;38145;53.182;6.284;2022-09-12T06:56:10;14.50;99.90
52159;DHT22;38145;53.182;6.284;2022-09-12T06:58:37;14.60;99.90
52159;DHT22;38145;53.182;6.284;2022-09-12T07:01:07;14.30;99.90
52159;DHT22;38145;53.182;6.284;2022-09-12T07:03:35;14.70;99.90
52159;DHT22;38145;53.182;6.284;2022-09-12T07:06:06;14.70;99.90
52159;DHT22;38145;53.182;6.284;2022-09-12T07:08:33;14.80;99.90
52159;DHT22;38145;53.182;6.284;2022-09-12T07:13:34;14.70;99.90
52159;DHT22;38145;53.182;6.284;2022-09-12T07:16:02;14.80;99.90
52159;DHT22;38145;53.182;6.284;2022-09-12T07:18:28;14.90;99.90
52159;DHT22;38145;53.182;6.284;2022-09-12T07:20:54;14.80;99.90
52159;DHT22;38145;53.182;6.284;2022-09-12T07:23:20;14.90;99.90
52159;DHT22;38145;53.182;6.284;2022-09-12T07:25:53;14.90;99.90
52159;DHT22;38145;53.182;6.284;2022-09-12T07:28:19;15.20;99.90
52159;DHT22;38145;53.182;6.284;2022-09-12T07:30:45;15.00;99.90
52159;DHT22;38145;53.182;6.284;2022-09-12T07:33:11;15.00;99.90
52159;DHT22;38145;53.182;6.284;2022-09-12T07:35:36;15.20;99.90
52159;DHT22;38145;53.182;6.284;2022-09-12T07:38:02;15.20;99.90
52159;DHT22;38145;53.182;6.284;2022-09-12T07:40:28;15.30;99.90
52159;DHT22;38145;53.182;6.284;2022-09-12T07:42:54;15.30;99.90
52159;DHT22;38145;53.182;6.284;2022-09-12T07:45:20;15.20;99.90
52159;DHT22;38145;53.182;6.284;2022-09-12T07:47:45;15.20;99.90
52159;DHT22;38145;53.182;6.284;2022-09-12T07:50:11;15.50;99.90
52159;DHT22;38145;53.182;6.284;2022-09-12T07:52:37;15.30;99.90
52159;DHT22;38145;53.182;6.284;2022-09-12T07:55:03;15.40;99.90
52159;DHT22;38145;53.182;6.284;2022-09-12T07:57:29;15.60;99.90
52159;DHT22;38145;53.182;6.284;2022-09-12T07:59:54;15.60;99.90
52159;DHT22;38145;53.182;6.284;2022-09-12T08:02:20;15.50;99.90
52159;DHT22;38145;53.182;6.284;2022-09-12T08:04:47;15.70;99.90
52159;DHT22;38145;53.182;6.284;2022-09-12T08:07:14;15.80;99.90
52159;DHT22;38145;53.182;6.284;2022-09-12T08:09:39;15.80;99.90
52159;DHT22;38145;53.182;6.284;2022-09-12T08:12:05;15.60;99.90
52159;DHT22;38145;53.182;6.284;2022-09-12T08:14:31;15.90;99.90
52159;DHT22;38145;53.182;6.284;2022-09-12T08:16:57;15.70;99.90
52159;DHT22;38145;53.182;6.284;2022-09-12T08:19:23;15.80;99.90
52159;DHT22;38145;53.182;6.284;2022-09-12T08:21:48;15.80;99.90
52159;DHT22;38145;53.182;6.284;2022-09-12T08:24:14;15.90;99.90
52159;DHT22;38145;53.182;6.284;2022-09-12T08:26:40;16.10;99.90
52159;DHT22;38145;53.182;6.284;2022-09-12T08:29:06;16.10;99.90
52159;DHT22;38145;53.182;6.284;2022-09-12T08:31:31;16.20;99.90
52159;DHT22;38145;53.182;6.284;2022-09-12T08:34:02;16.20;99.90
52159;DHT22;38145;53.182;6.284;2022-09-12T08:36:29;16.30;99.90
52159;DHT22;38145;53.182;6.284;2022-09-12T08:38:57;16.50;99.90
52159;DHT22;38145;53.182;6.284;2022-09-12T08:41:32;16.60;99.90
52159;DHT22;38145;53.182;6.284;2022-09-12T08:47:13;16.60;99.90
52159;DHT22;38145;53.182;6.284;2022-09-12T08:54:56;17.00;99.90
52159;DHT22;38145;53.182;6.284;2022-09-12T08:57:22;17.20;99.90
52159;DHT22;38145;53.182;6.284;2022-09-12T08:59:49;17.30;99.90
52159;DHT22;38145;53.182;6.284;2022-09-12T09:02:23;17.30;99.90
52159;DHT22;38145;53.182;6.284;2022-09-12T09:04:58;17.50;99.90
52159;DHT22;38145;53.182;6.284;2022-09-12T09:10:34;17.80;99.90
52159;DHT22;38145;53.182;6.284;2022-09-12T09:16:30;17.80;99.90
52159;DHT22;38145;53.182;6.284;2022-09-12T09:19:00;17.90;99.90
52159;DHT22;38145;53.182;6.284;2022-09-12T09:21:34;18.10;99.90
52159;DHT22;38145;53.182;6.284;2022-09-12T09:24:07;18.20;99.90
52159;DHT22;38145;53.182;6.284;2022-09-12T09:29:06;18.20;99.90
52159;DHT22;38145;53.182;6.284;2022-09-12T09:31:38;18.40;99.90
52159;DHT22;38145;53.182;6.284;2022-09-12T09:34:13;18.70;99.90
52159;DHT22;38145;53.182;6.284;2022-09-12T09:36:47;18.70;99.90
52159;DHT22;38145;53.182;6.284;2022-09-12T09:39:27;18.90;99.90
52159;DHT22;38145;53.182;6.284;2022-09-12T09:42:17;19.20;99.90
52159;DHT22;38145;53.182;6.284;2022-09-12T09:44:47;19.60;99.90
52159;DHT22;38145;53.182;6.284;2022-09-12T09:47:13;20.00;99.90
52159;DHT22;38145;53.182;6.284;2022-09-12T09:49:40;20.40;99.90
52159;DHT22;38145;53.182;6.284;2022-09-12T09:52:07;20.60;99.90
52159;DHT22;38145;53.182;6.284;2022-09-12T09:54:42;20.70;99.90
52159;DHT22;38145;53.182;6.284;2022-09-12T09:57:39;20.60;99.90
52159;DHT22;38145;53.182;6.284;2022-09-12T10:05:43;21.10;99.90
52159;DHT22;38145;53.182;6.284;2022-09-12T10:08:10;21.40;99.90
52159;DHT22;38145;53.182;6.284;2022-09-12T10:10:57;21.60;99.90
52159;DHT22;38145;53.182;6.284;2022-09-12T10:13:32;21.70;99.90
52159;DHT22;38145;53.182;6.284;2022-09-12T10:16:03;21.70;99.90
52159;DHT22;38145;53.182;6.284;2022-09-12T10:18:38;21.60;99.90
52159;DHT22;38145;53.182;6.284;2022-09-12T10:21:27;21.50;99.90
52159;DHT22;38145;53.182;6.284;2022-09-12T10:24:00;21.70;99.90
52159;DHT22;38145;53.182;6.284;2022-09-12T10:26:32;21.70;99.90
52159;DHT22;38145;53.182;6.284;2022-09-12T10:29:03;21.70;99.90
52159;DHT22;38145;53.182;6.284;2022-09-12T10:31:42;21.90;99.90
52159;DHT22;38145;53.182;6.284;2022-09-12T10:34:29;21.90;99.90
52159;DHT22;38145;53.182;6.284;2022-09-12T10:37:01;22.00;99.90
52159;DHT22;38145;53.182;6.284;2022-09-12T10:39:27;22.10;99.90
52159;DHT22;38145;53.182;6.284;2022-09-12T10:41:54;22.20;99.90
52159;DHT22;38145;53.182;6.284;2022-09-12T10:44:26;22.20;99.90
52159;DHT22;38145;53.182;6.284;2022-09-12T10:46:54;22.30;99.90
52159;DHT22;38145;53.182;6.284;2022-09-12T10:49:27;22.50;99.90
52159;DHT22;38145;53.182;6.284;2022-09-12T10:51:55;22.40;99.90
52159;DHT22;38145;53.182;6.284;2022-09-12T10:54:24;22.70;99.90
52159;DHT22;38145;53.182;6.284;2022-09-12T10:57:02;22.80;99.90
52159;DHT22;38145;53.182;6.284;2022-09-12T10:59:50;22.90;99.90
52159;DHT22;38145;53.182;6.284;2022-09-12T11:02:28;23.00;99.90
52159;DHT22;38145;53.182;6.284;2022-09-12T11:07:45;23.10;99.90
52159;DHT22;38145;53.182;6.284;2022-09-12T11:13:18;23.30;99.90
52159;DHT22;38145;53.182;6.284;2022-09-12T11:16:11;23.40;99.90
52159;DHT22;38145;53.182;6.284;2022-09-12T11:19:03;23.30;99.90
52159;DHT22;38145;53.182;6.284;2022-09-12T11:21:56;23.20;99.90
52159;DHT22;38145;53.182;6.284;2022-09-12T11:27:32;23.20;99.90
52159;DHT22;38145;53.182;6.284;2022-09-12T11:30:02;23.20;99.90
52159;DHT22;38145;53.182;6.284;2022-09-12T11:32:56;23.00;99.90
52159;DHT22;38145;53.182;6.284;2022-09-12T11:35:28;22.90;99.90
52159;DHT22;38145;53.182;6.284;2022-09-12T11:38:17;22.90;99.90
52159;DHT22;38145;53.182;6.284;2022-09-12T11:40:53;23.00;99.90
52159;DHT22;38145;53.182;6.284;2022-09-12T11:43:28;23.00;99.90
52159;DHT22;38145;53.182;6.284;2022-09-12T11:46:00;23.00;99.90
52159;DHT22;38145;53.182;6.284;2022-09-12T11:48:54;23.10;99.90
52159;DHT22;38145;53.182;6.284;2022-09-12T11:51:33;23.10;99.90
52159;DHT22;38145;53.182;6.284;2022-09-12T11:56:30;23.00;99.90
52159;DHT22;38145;53.182;6.284;2022-09-12T11:59:08;22.80;99.90
52159;DHT22;38145;53.182;6.284;2022-09-12T12:01:39;22.70;99.90
52159;DHT22;38145;53.182;6.284;2022-09-12T12:04:10;22.70;99.90
52159;DHT22;38145;53.182;6.284;2022-09-12T12:07:02;22.80;99.90
52159;DHT22;38145;53.182;6.284;2022-09-12T12:09:28;22.80;99.90
52159;DHT22;38145;53.182;6.284;2022-09-12T12:11:57;23.00;99.90
52159;DHT22;38145;53.182;6.284;2022-09-12T12:14:34;23.00;99.90
52159;DHT22;38145;53.182;6.284;2022-09-12T12:17:00;22.80;99.90
52159;DHT22;38145;53.182;6.284;2022-09-12T12:19:33;22.80;99.90
52159;DHT22;38145;53.182;6.284;2022-09-12T12:22:06;22.70;99.90
52159;DHT22;38145;53.182;6.284;2022-09-12T12:24:33;22.80;99.90
52159;DHT22;38145;53.182;6.284;2022-09-12T12:27:01;22.80;99.90
52159;DHT22;38145;53.182;6.284;2022-09-12T12:34:35;23.10;99.90
52159;DHT22;38145;53.182;6.284;2022-09-12T12:50:13;23.10;99.90
52159;DHT22;38145;53.182;6.284;2022-09-12T12:52:51;23.10;99.90
52159;DHT22;38145;53.182;6.284;2022-09-12T12:57:52;23.10;99.90
52159;DHT22;38145;53.182;6.284;2022-09-12T13:02:57;23.30;99.90
52159;DHT22;38145;53.182;6.284;2022-09-12T13:05:26;23.50;99.90
52159;DHT22;38145;53.182;6.284;2022-09-12T13:08:02;23.50;99.90
52159;DHT22;38145;53.182;6.284;2022-09-12T13:10:29;23.60;99.90
52159;DHT22;38145;53.182;6.284;2022-09-12T13:12:59;23.60;99.90
52159;DHT22;38145;53.182;6.284;2022-09-12T13:18:03;23.70;99.90
52159;DHT22;38145;53.182;6.284;2022-09-12T13:20:32;23.70;99.90
52159;DHT22;38145;53.182;6.284;2022-09-12T13:23:02;23.70;99.90
52159;DHT22;38145;53.182;6.284;2022-09-12T13:25:29;23.70;99.90
52159;DHT22;38145;53.182;6.284;2022-09-12T13:30:23;23.50;99.90
52159;DHT22;38145;53.182;6.284;2022-09-12T13:32:49;23.50;99.90
52159;DHT22;38145;53.182;6.284;2022-09-12T13:35:45;23.40;99.90
52159;DHT22;38145;53.182;6.284;2022-09-12T13:41:19;23.50;99.90
52159;DHT22;38145;53.182;6.284;2022-09-12T13:43:47;23.50;99.90
52159;DHT22;38145;53.182;6.284;2022-09-12T13:46:18;23.60;99.90
52159;DHT22;38145;53.182;6.284;2022-09-12T13:48:47;23.70;99.90
52159;DHT22;38145;53.182;6.284;2022-09-12T13:51:22;23.60;99.90
52159;DHT22;38145;53.182;6.284;2022-09-12T13:53:50;23.70;99.90
52159;DHT22;38145;53.182;6.284;2022-09-12T13:56:18;23.70;99.90
52159;DHT22;38145;53.182;6.284;2022-09-12T13:58:56;23.60;99.90
52159;DHT22;38145;53.182;6.284;2022-09-12T14:01:24;23.60;99.90
52159;DHT22;38145;53.182;6.284;2022-09-12T14:04:09;23.50;99.90
52159;DHT22;38145;53.182;6.284;2022-09-12T14:06:58;23.40;99.90
52159;DHT22;38145;53.182;6.284;2022-09-12T14:09:29;23.30;99.90
52159;DHT22;38145;53.182;6.284;2022-09-12T14:11:57;23.30;99.90
52159;DHT22;38145;53.182;6.284;2022-09-12T14:14:35;23.20;99.90
52159;DHT22;38145;53.182;6.284;2022-09-12T14:17:22;23.20;99.90
52159;DHT22;38145;53.182;6.284;2022-09-12T14:19:49;23.20;99.90
52159;DHT22;38145;53.182;6.284;2022-09-12T14:22:16;23.20;99.90
52159;DHT22;38145;53.182;6.284;2022-09-12T14:24:46;23.20;99.90
52159;DHT22;38145;53.182;6.284;2022-09-12T14:27:17;23.20;99.90
52159;DHT22;38145;53.182;6.284;2022-09-12T14:29:45;23.30;99.90
52159;DHT22;38145;53.182;6.284;2022-09-12T14:32:21;23.30;99.90
52159;DHT22;38145;53.182;6.284;2022-09-12T14:35:16;23.30;99.90
52159;DHT22;38145;53.182;6.284;2022-09-12T14:37:45;23.30;99.90
52159;DHT22;38145;53.182;6.284;2022-09-12T14:40:19;23.40;99.90
52159;DHT22;38145;53.182;6.284;2022-09-12T14:42:48;23.50;99.90
52159;DHT22;38145;53.182;6.284;2022-09-12T14:45:19;23.50;99.90
52159;DHT22;38145;53.182;6.284;2022-09-12T14:47:49;23.50;99.90
52159;DHT22;38145;53.182;6.284;2022-09-12T14:50:17;23.60;99.90
52159;DHT22;38145;53.182;6.284;2022-09-12T14:52:45;23.60;99.90
52159;DHT22;38145;53.182;6.284;2022-09-12T14:57:41;23.60;99.90
52159;DHT22;38145;53.182;6.284;2022-09-12T15:02:39;23.60;99.90
52159;DHT22;38145;53.182;6.284;2022-09-12T15:07:34;23.50;99.90
52159;DHT22;38145;53.182;6.284;2022-09-12T15:10:04;23.40;99.90
52159;DHT22;38145;53.182;6.284;2022-09-12T15:12:31;23.40;99.90
52159;DHT22;38145;53.182;6.284;2022-09-12T15:15:11;23.50;99.90
52159;DHT22;38145;53.182;6.284;2022-09-12T15:17:37;23.40;99.90
52159;DHT22;38145;53.182;6.284;2022-09-12T15:20:03;23.50;99.90
52159;DHT22;38145;53.182;6.284;2022-09-12T15:22:31;23.50;99.90
52159;DHT22;38145;53.182;6.284;2022-09-12T15:24:57;23.40;99.90
52159;DHT22;38145;53.182;6.284;2022-09-12T15:27:24;23.40;99.90
52159;DHT22;38145;53.182;6.284;2022-09-12T15:29:52;23.30;99.90
52159;DHT22;38145;53.182;6.284;2022-09-12T15:32:26;23.30;99.90
52159;DHT22;38145;53.182;6.284;2022-09-12T15:34:53;23.30;99.90
52159;DHT22;38145;53.182;6.284;2022-09-12T15:37:21;23.20;99.90
52159;DHT22;38145;53.182;6.284;2022-09-12T15:39:48;23.20;99.90
52159;DHT22;38145;53.182;6.284;2022-09-12T15:42:14;23.10;99.90
52159;DHT22;38145;53.182;6.284;2022-09-12T15:44:41;23.10;99.90
52159;DHT22;38145;53.182;6.284;2022-09-12T15:47:10;23.20;99.90
52159;DHT22;38145;53.182;6.284;2022-09-12T15:49:36;23.20;99.90
52159;DHT22;38145;53.182;6.284;2022-09-12T15:52:02;23.20;99.90
52159;DHT22;38145;53.182;6.284;2022-09-12T15:54:28;23.20;99.90
52159;DHT22;38145;53.182;6.284;2022-09-12T15:56:54;23.20;99.90
52159;DHT22;38145;53.182;6.284;2022-09-12T15:59:20;23.20;99.90
52159;DHT22;38145;53.182;6.284;2022-09-12T16:01:46;23.20;99.90
52159;DHT22;38145;53.182;6.284;2022-09-12T16:04:21;23.20;99.90
52159;DHT22;38145;53.182;6.284;2022-09-12T16:06:49;23.10;99.90
52159;DHT22;38145;53.182;6.284;2022-09-12T16:09:15;23.10;99.90
52159;DHT22;38145;53.182;6.284;2022-09-12T16:11:41;23.10;99.90
52159;DHT22;38145;53.182;6.284;2022-09-12T16:14:07;23.00;99.90
52159;DHT22;38145;53.182;6.284;2022-09-12T16:16:33;23.00;99.90
52159;DHT22;38145;53.182;6.284;2022-09-12T16:18:59;22.90;99.90
52159;DHT22;38145;53.182;6.284;2022-09-12T16:21:25;22.90;99.90
52159;DHT22;38145;53.182;6.284;2022-09-12T16:23:51;22.80;99.90
52159;DHT22;38145;53.182;6.284;2022-09-12T16:26:17;22.80;99.90
52159;DHT22;38145;53.182;6.284;2022-09-12T16:28:43;22.70;99.90
52159;DHT22;38145;53.182;6.284;2022-09-12T16:31:11;22.70;99.90
52159;DHT22;38145;53.182;6.284;2022-09-12T16:33:38;22.70;99.90
52159;DHT22;38145;53.182;6.284;2022-09-12T16:36:09;22.70;99.90
52159;DHT22;38145;53.182;6.284;2022-09-12T16:38:43;22.60;99.90
52159;DHT22;38145;53.182;6.284;2022-09-12T16:41:09;22.60;99.90
52159;DHT22;38145;53.182;6.284;2022-09-12T16:43:36;22.60;99.90
52159;DHT22;38145;53.182;6.284;2022-09-12T16:46:04;22.50;99.90
52159;DHT22;38145;53.182;6.284;2022-09-12T16:48:30;22.50;99.90
52159;DHT22;38145;53.182;6.284;2022-09-12T16:50:57;22.50;99.90
52159;DHT22;38145;53.182;6.284;2022-09-12T16:53:25;22.50;99.90
52159;DHT22;38145;53.182;6.284;2022-09-12T16:55:51;22.50;99.90
52159;DHT22;38145;53.182;6.284;2022-09-12T16:58:16;22.50;99.90
52159;DHT22;38145;53.182;6.284;2022-09-12T17:00:42;22.50;99.90
52159;DHT22;38145;53.182;6.284;2022-09-12T17:03:09;22.50;99.90
52159;DHT22;38145;53.182;6.284;2022-09-12T17:05:35;22.50;99.90
52159;DHT22;38145;53.182;6.284;2022-09-12T17:08:01;22.50;99.90
52159;DHT22;38145;53.182;6.284;2022-09-12T17:10:27;22.40;99.90
52159;DHT22;38145;53.182;6.284;2022-09-12T17:12:55;22.40;99.90
52159;DHT22;38145;53.182;6.284;2022-09-12T17:15:22;22.40;99.90
52159;DHT22;38145;53.182;6.284;2022-09-12T17:17:48;22.30;99.90
52159;DHT22;38145;53.182;6.284;2022-09-12T17:20:16;22.20;99.90